Point Comfort, TX (77978)

7:02 AM CDT on September 05, 2015 (GMT -0500)
Oak Grove | | Change Station
CLOSE
Current Station
Personal Weather Station
Location: Port Lavaca, TX
Elevation: 26 ft
Nearby Weather Stations

Elev 26 ft 28.63 °N, 96.64 °W | Updated 1 minute ago

Clear
Clear
81.8 °F
Feels Like 92 °F
N
0.0
Wind Variable Wind from SE
Gusts 11.0 mph

Today
High -- | Low -- °F
--% Chance of Precip.
Yesterday
High -- | Low -- °F
Precip. -- in
7:06 AM 7:43 PM
Waning Gibbous, 49% visible
Pressure 29.97 in
Visibility 10.0 miles
Clouds Few 2500 ft
Scattered Clouds 4900 ft
Mostly Cloudy 7500 ft
Heat Index 92 °F
Dew Point 80 °F
Humidity 93%
Rainfall 0.00 in
Snow Depth Not available.
UV 0 out of 12
Pollen 7.60 out of 12
Air Quality Not available.
Flu Activity Not available.
METAR KPSX 051153Z AUTO 17004KT 10SM FEW025 SCT049 BKN075 28/27 A2997 RMK AO2 RAB29E39 SLP148 P0000 60000 T02830267 10283 20278 53007
Pressure 29.97 in
Visibility 10.0 miles
Clouds Few 2500 ft
Scattered Clouds 4900 ft
Mostly Cloudy 7500 ft
Heat Index 92 °F
Dew Point 80 °F
Humidity 93%
Rainfall 0.00 in
Snow Depth Not available.
UV 0 out of 12
Pollen 7.60 out of 12
Air Quality Not available.
Flu Activity Not available.
METAR KPSX 051153Z AUTO 17004KT 10SM FEW025 SCT049 BKN075 28/27 A2997 RMK AO2 RAB29E39 SLP148 P0000 60000 T02830267 10283 20278 53007

10-Day Weather Forecast

×

Almanac

Astronomy

Sep. 05, 2015 Rise Set
Actual Time
Civil Twilight
Nautical Twilight
Astronomical Twilight
Moon
Length of Visible Light
Length of Day
Tomorrow will be .
, % of the Moon is Illuminated

Today's Extremes

State Highs State Lows

Community

WunderPhotos

Upload Photos

1,852,453 photos uploaded!

WunderBlogs® & News

Nearby

Air Quality

  Air Quality AQ Index Pollutant
Not available.

Snow Depth

Station Depth Elevation

Earthquake Activity

City Distance Mag. Time & Date
Minimum magnitude displayed is 2.5.

Coastal Water Temperatures

Place Temperature

Stations

Nearby Weather Stations

Station Location Temp. Windchill Dew Point Humidity Wind Precip. Elev Updated Type